F/v_l'omerta — FHXG — position and weather

sailwx.info

Track history (hours):
 
Tides and Currents Weather Stations Pressure Air Temp Water Temp Dewpoint Dewpoint Depression Visibility Wind Speed Wind Dir Waves Ship Positions

F/v_l'omerta

Last reported at 2015-May-04 16:33 UTC. Time now 2015-May-04 20:07 UTC.
Position N 46°30' W 001°47'.

Length 18 m.

Type: Fishing. MMSI: 227903000.

Date/timePositionNaut miles runAvg speedWind from/ knotsBaromVisibWave heightAir tempDewpointWater temp
2015-May-04 16:33N 46°30' W 001°47'4 4.0
2015-May-04 15:33N 46°26' W 001°49'10 9.7
2015-May-04 14:33N 46°18' W 001°56'  
2015-May-02 06:21N 46°12' W 001°57'8 9.5
2015-May-02 05:33N 46°19' W 001°53'9 9.4
2015-May-02 04:33N 46°28' W 001°47'2 2.2
2015-May-02 03:33N 46°30' W 001°47'0 0.0
2015-May-02 02:33N 46°30' W 001°47'0 0.0
2015-May-02 01:33N 46°30' W 001°47'0 0.0
2015-May-02 00:33N 46°30' W 001°47'0 0.0
2015-May-01 23:33N 46°30' W 001°47'0 0.0
2015-May-01 22:33N 46°30' W 001°47'0 0.0
2015-May-01 21:33N 46°30' W 001°47'0 0.0
2015-May-01 20:33N 46°30' W 001°47'0 0.0
2015-May-01 19:33N 46°30' W 001°47'0 0.0
2015-May-01 18:33N 46°30' W 001°47'0 0.0
2015-May-01 17:33N 46°30' W 001°47'0 0.0
2015-May-01 16:33N 46°30' W 001°47'0 0.0
2015-May-01 15:33N 46°30' W 001°47'0 0.0
2015-May-01 14:33N 46°30' W 001°47'0 0.0
2015-May-01 13:33N 46°30' W 001°47'0 0.0
2015-May-01 12:33N 46°30' W 001°47'0 0.0
2015-May-01 11:33N 46°30' W 001°47'0 0.0
2015-May-01 10:33N 46°30' W 001°47'0 0.0
2015-May-01 09:33N 46°30' W 001°47'0 0.0
2015-May-01 08:33N 46°30' W 001°47'0 0.0
2015-May-01 07:33N 46°30' W 001°47'0 0.0
2015-May-01 06:33N 46°30' W 001°47'0 0.0
2015-May-01 05:33N 46°30' W 001°47'0 0.0
2015-May-01 04:33N 46°30' W 001°47'0 0.0
2015-May-01 03:33N 46°30' W 001°47'0 0.0
2015-May-01 02:33N 46°30' W 001°47'0 0.0
2015-May-01 01:33N 46°30' W 001°47'0 0.0
2015-May-01 00:33N 46°30' W 001°47'0 0.0
2015-Apr-30 23:33N 46°30' W 001°47'0 0.0
2015-Apr-30 22:33N 46°30' W 001°47'0 0.0
2015-Apr-30 21:33N 46°30' W 001°47'0 0.0
2015-Apr-30 20:33N 46°30' W 001°47'0 0.0
2015-Apr-30 19:33N 46°30' W 001°47'0 0.0
2015-Apr-30 18:33N 46°30' W 001°47'0 0.0
2015-Apr-30 17:33N 46°30' W 001°47'0 0.0
2015-Apr-30 16:33N 46°30' W 001°47'0 0.0
2015-Apr-30 15:33N 46°30' W 001°47'0 0.0
2015-Apr-30 14:33N 46°30' W 001°47'0 0.0
2015-Apr-30 13:33N 46°30' W 001°47'0 0.0
2015-Apr-30 12:33N 46°30' W 001°47'0 0.0
2015-Apr-30 11:33N 46°30' W 001°47'0 0.0
2015-Apr-30 10:33N 46°30' W 001°47'0 0.0
2015-Apr-30 09:33N 46°30' W 001°47'0 0.0
2015-Apr-30 08:33N 46°30' W 001°47'0 0.0
2015-Apr-30 07:33N 46°30' W 001°47'0 0.0
2015-Apr-30 06:33N 46°30' W 001°47'0 0.0
2015-Apr-30 05:33N 46°30' W 001°47'0 0.0
2015-Apr-30 04:33N 46°30' W 001°47'0 0.0
2015-Apr-30 03:34N 46°30' W 001°47'0 0.0
2015-Apr-30 02:33N 46°30' W 001°47'0 0.0
2015-Apr-30 01:33N 46°30' W 001°47'0 0.0
2015-Apr-30 00:33N 46°30' W 001°47'0 0.0
2015-Apr-29 23:33N 46°30' W 001°47'0 0.0
2015-Apr-29 22:33N 46°30' W 001°47'0 0.0
2015-Apr-29 21:33N 46°30' W 001°47'0 0.0
2015-Apr-29 20:33N 46°30' W 001°47'0 0.0
2015-Apr-29 19:33N 46°30' W 001°47'0 0.0
2015-Apr-29 18:33N 46°30' W 001°47'0 0.0
2015-Apr-29 17:33N 46°30' W 001°47'0 0.0
2015-Apr-29 16:33N 46°30' W 001°47'0 0.0
2015-Apr-29 15:33N 46°30' W 001°47'0 0.0
2015-Apr-29 14:33N 46°30' W 001°47'0 0.0
2015-Apr-29 13:33N 46°30' W 001°47'0 0.0
2015-Apr-29 12:33N 46°30' W 001°47'0 0.0
2015-Apr-29 11:33N 46°30' W 001°47'0 0.0
2015-Apr-29 10:33N 46°30' W 001°47'0 0.0
2015-Apr-29 09:33N 46°30' W 001°47'0 0.0
2015-Apr-29 08:33N 46°30' W 001°47'0 0.0
2015-Apr-29 07:33N 46°30' W 001°47'0 0.0
2015-Apr-29 06:33N 46°30' W 001°47'0 0.0
2015-Apr-29 05:33N 46°30' W 001°47'0 0.0
2015-Apr-29 04:33N 46°30' W 001°47'0 0.0
2015-Apr-29 03:33N 46°30' W 001°47'0 0.0
2015-Apr-29 02:33N 46°30' W 001°47'0 0.0
2015-Apr-29 01:33N 46°30' W 001°47'0 0.0
2015-Apr-29 00:33N 46°30' W 001°47'0 0.0
2015-Apr-28 23:33N 46°30' W 001°47'0 0.0
2015-Apr-28 22:33N 46°30' W 001°47'0 0.0
2015-Apr-28 21:33N 46°30' W 001°47'0 0.0
2015-Apr-28 20:33N 46°30' W 001°47'0 0.0
2015-Apr-28 19:33N 46°30' W 001°47'0 0.0
2015-Apr-28 18:33N 46°30' W 001°47'0 0.0
2015-Apr-28 17:33N 46°30' W 001°47'0 0.0
2015-Apr-28 16:33N 46°30' W 001°47'0 0.0
2015-Apr-28 15:33N 46°30' W 001°47'0 0.0
2015-Apr-28 14:33N 46°30' W 001°47'0 0.0
2015-Apr-28 13:33N 46°30' W 001°47'0 0.0
2015-Apr-28 12:33N 46°30' W 001°47'0 0.0
2015-Apr-28 11:33N 46°30' W 001°47'0 0.0
2015-Apr-28 10:33N 46°30' W 001°47'0 0.0
2015-Apr-28 09:33N 46°30' W 001°47'0 0.0
2015-Apr-28 08:33N 46°30' W 001°47'0 0.0
2015-Apr-28 07:33N 46°30' W 001°47'0 0.0
2015-Apr-28 06:33N 46°30' W 001°47'0 0.0
2015-Apr-27 15:33N 46°30' W 001°47'0 0.0
2015-Apr-27 14:33N 46°30' W 001°47'0 0.0
2015-Apr-27 13:33N 46°30' W 001°47'0 0.0
2015-Apr-27 12:33N 46°30' W 001°47'0 0.0
2015-Apr-27 11:33N 46°30' W 001°47'0 0.0
2015-Apr-27 10:33N 46°30' W 001°47'0 0.0
2015-Apr-27 09:33N 46°30' W 001°47'0 0.0
2015-Apr-27 08:33N 46°30' W 001°47'0 0.0
2015-Apr-27 07:33N 46°30' W 001°47'0 0.2
2015-Apr-27 06:33N 46°30' W 001°48'7 7.3
2015-Apr-27 05:33N 46°23' W 001°44'9 8.8
2015-Apr-27 04:33N 46°15' W 001°39'12 8.6
2015-Apr-27 03:07N 46°07' W 001°25'5 9.7
2015-Apr-27 02:33N 46°07' W 001°17'4 3.6
2015-Apr-27 01:33N 46°09' W 001°13'4 4.4
2015-Apr-27 00:33N 46°06' W 001°18'60 1.7
2015-Apr-25 12:32N 45°28' W 002°24'2 1.7
2015-Apr-25 11:34N 45°27' W 002°26'3 3.0
2015-Apr-25 10:33N 45°25' W 002°24'  
Track history (hours):
 
Tides and Currents Weather Stations Pressure Air Temp Water Temp Dewpoint Dewpoint Depression Visibility Wind Speed Wind Dir Waves Ship Positions

F/v_l'omerta

Last reported at 2015-May-04 16:33 UTC. Time now 2015-May-04 20:07 UTC.
Position N 46°30' W 001°47'.

Length 18 m.

Type: Fishing. MMSI: 227903000.

Date/timePositionNaut miles runAvg speedWind from/ knotsBaromVisibWave heightAir tempDewpointWater temp
2015-May-04 16:33N 46°30' W 001°47'4 4.0
2015-May-04 15:33N 46°26' W 001°49'10 9.7
2015-May-04 14:33N 46°18' W 001°56'  
2015-May-02 06:21N 46°12' W 001°57'8 9.5
2015-May-02 05:33N 46°19' W 001°53'9 9.4
2015-May-02 04:33N 46°28' W 001°47'2 2.2
2015-May-02 03:33N 46°30' W 001°47'0 0.0
2015-May-02 02:33N 46°30' W 001°47'0 0.0
2015-May-02 01:33N 46°30' W 001°47'0 0.0
2015-May-02 00:33N 46°30' W 001°47'0 0.0
2015-May-01 23:33N 46°30' W 001°47'0 0.0
2015-May-01 22:33N 46°30' W 001°47'0 0.0
2015-May-01 21:33N 46°30' W 001°47'0 0.0
2015-May-01 20:33N 46°30' W 001°47'0 0.0
2015-May-01 19:33N 46°30' W 001°47'0 0.0
2015-May-01 18:33N 46°30' W 001°47'0 0.0
2015-May-01 17:33N 46°30' W 001°47'0 0.0
2015-May-01 16:33N 46°30' W 001°47'0 0.0
2015-May-01 15:33N 46°30' W 001°47'0 0.0
2015-May-01 14:33N 46°30' W 001°47'0 0.0
2015-May-01 13:33N 46°30' W 001°47'0 0.0
2015-May-01 12:33N 46°30' W 001°47'0 0.0
2015-May-01 11:33N 46°30' W 001°47'0 0.0
2015-May-01 10:33N 46°30' W 001°47'0 0.0
2015-May-01 09:33N 46°30' W 001°47'0 0.0
2015-May-01 08:33N 46°30' W 001°47'0 0.0
2015-May-01 07:33N 46°30' W 001°47'0 0.0
2015-May-01 06:33N 46°30' W 001°47'0 0.0
2015-May-01 05:33N 46°30' W 001°47'0 0.0
2015-May-01 04:33N 46°30' W 001°47'0 0.0
2015-May-01 03:33N 46°30' W 001°47'0 0.0
2015-May-01 02:33N 46°30' W 001°47'0 0.0
2015-May-01 01:33N 46°30' W 001°47'0 0.0
2015-May-01 00:33N 46°30' W 001°47'0 0.0
2015-Apr-30 23:33N 46°30' W 001°47'0 0.0
2015-Apr-30 22:33N 46°30' W 001°47'0 0.0
2015-Apr-30 21:33N 46°30' W 001°47'0 0.0
2015-Apr-30 20:33N 46°30' W 001°47'0 0.0
2015-Apr-30 19:33N 46°30' W 001°47'0 0.0
2015-Apr-30 18:33N 46°30' W 001°47'0 0.0
2015-Apr-30 17:33N 46°30' W 001°47'0 0.0
2015-Apr-30 16:33N 46°30' W 001°47'0 0.0
2015-Apr-30 15:33N 46°30' W 001°47'0 0.0
2015-Apr-30 14:33N 46°30' W 001°47'0 0.0
2015-Apr-30 13:33N 46°30' W 001°47'0 0.0
2015-Apr-30 12:33N 46°30' W 001°47'0 0.0
2015-Apr-30 11:33N 46°30' W 001°47'0 0.0
2015-Apr-30 10:33N 46°30' W 001°47'0 0.0
2015-Apr-30 09:33N 46°30' W 001°47'0 0.0
2015-Apr-30 08:33N 46°30' W 001°47'0 0.0
2015-Apr-30 07:33N 46°30' W 001°47'0 0.0
2015-Apr-30 06:33N 46°30' W 001°47'0 0.0
2015-Apr-30 05:33N 46°30' W 001°47'0 0.0
2015-Apr-30 04:33N 46°30' W 001°47'0 0.0
2015-Apr-30 03:34N 46°30' W 001°47'0 0.0
2015-Apr-30 02:33N 46°30' W 001°47'0 0.0
2015-Apr-30 01:33N 46°30' W 001°47'0 0.0
2015-Apr-30 00:33N 46°30' W 001°47'0 0.0
2015-Apr-29 23:33N 46°30' W 001°47'0 0.0
2015-Apr-29 22:33N 46°30' W 001°47'0 0.0
2015-Apr-29 21:33N 46°30' W 001°47'0 0.0
2015-Apr-29 20:33N 46°30' W 001°47'0 0.0
2015-Apr-29 19:33N 46°30' W 001°47'0 0.0
2015-Apr-29 18:33N 46°30' W 001°47'0 0.0
2015-Apr-29 17:33N 46°30' W 001°47'0 0.0
2015-Apr-29 16:33N 46°30' W 001°47'0 0.0
2015-Apr-29 15:33N 46°30' W 001°47'0 0.0
2015-Apr-29 14:33N 46°30' W 001°47'0 0.0
2015-Apr-29 13:33N 46°30' W 001°47'0 0.0
2015-Apr-29 12:33N 46°30' W 001°47'0 0.0
2015-Apr-29 11:33N 46°30' W 001°47'0 0.0
2015-Apr-29 10:33N 46°30' W 001°47'0 0.0
2015-Apr-29 09:33N 46°30' W 001°47'0 0.0
2015-Apr-29 08:33N 46°30' W 001°47'0 0.0
2015-Apr-29 07:33N 46°30' W 001°47'0 0.0
2015-Apr-29 06:33N 46°30' W 001°47'0 0.0
2015-Apr-29 05:33N 46°30' W 001°47'0 0.0
2015-Apr-29 04:33N 46°30' W 001°47'0 0.0
2015-Apr-29 03:33N 46°30' W 001°47'0 0.0
2015-Apr-29 02:33N 46°30' W 001°47'0 0.0
2015-Apr-29 01:33N 46°30' W 001°47'0 0.0
2015-Apr-29 00:33N 46°30' W 001°47'0 0.0
2015-Apr-28 23:33N 46°30' W 001°47'0 0.0
2015-Apr-28 22:33N 46°30' W 001°47'0 0.0
2015-Apr-28 21:33N 46°30' W 001°47'0 0.0
2015-Apr-28 20:33N 46°30' W 001°47'0 0.0
2015-Apr-28 19:33N 46°30' W 001°47'0 0.0
2015-Apr-28 18:33N 46°30' W 001°47'0 0.0
2015-Apr-28 17:33N 46°30' W 001°47'0 0.0
2015-Apr-28 16:33N 46°30' W 001°47'0 0.0
2015-Apr-28 15:33N 46°30' W 001°47'0 0.0
2015-Apr-28 14:33N 46°30' W 001°47'0 0.0
2015-Apr-28 13:33N 46°30' W 001°47'0 0.0
2015-Apr-28 12:33N 46°30' W 001°47'0 0.0
2015-Apr-28 11:33N 46°30' W 001°47'0 0.0
2015-Apr-28 10:33N 46°30' W 001°47'0 0.0
2015-Apr-28 09:33N 46°30' W 001°47'0 0.0
2015-Apr-28 08:33N 46°30' W 001°47'0 0.0
2015-Apr-28 07:33N 46°30' W 001°47'0 0.0
2015-Apr-28 06:33N 46°30' W 001°47'0 0.0
2015-Apr-27 15:33N 46°30' W 001°47'0 0.0
2015-Apr-27 14:33N 46°30' W 001°47'0 0.0
2015-Apr-27 13:33N 46°30' W 001°47'0 0.0
2015-Apr-27 12:33N 46°30' W 001°47'0 0.0
2015-Apr-27 11:33N 46°30' W 001°47'0 0.0
2015-Apr-27 10:33N 46°30' W 001°47'0 0.0
2015-Apr-27 09:33N 46°30' W 001°47'0 0.0
2015-Apr-27 08:33N 46°30' W 001°47'0 0.0
2015-Apr-27 07:33N 46°30' W 001°47'0 0.2
2015-Apr-27 06:33N 46°30' W 001°48'7 7.3
2015-Apr-27 05:33N 46°23' W 001°44'9 8.8
2015-Apr-27 04:33N 46°15' W 001°39'12 8.6
2015-Apr-27 03:07N 46°07' W 001°25'5 9.7
2015-Apr-27 02:33N 46°07' W 001°17'4 3.6
2015-Apr-27 01:33N 46°09' W 001°13'4 4.4
2015-Apr-27 00:33N 46°06' W 001°18'60 1.7
2015-Apr-25 12:32N 45°28' W 002°24'2 1.7
2015-Apr-25 11:34N 45°27' W 002°26'3 3.0
2015-Apr-25 10:33N 45°25' W 002°24'  

Dump ship's entire track history